Time;durP1;ratioP1;P1;durP2;ratioP2;P2;SDS_P1;SDS_P2;PMS_P1;PMS_P2;Temp;Humidity;BMP_temperature;BMP_pressure;BME280_temperature;BME280_humidity;BME280_pressure;Samples;Min_cycle;Max_cycle;Signal;HPM_P1;HPM_P2
2023/08/22 00:00:33;;;;;;;3.40;3.10;;;21.70;1.00;;;;;;5044893;28;20468;-74
2023/08/22 00:03:01;;;;;;;5.20;2.77;;;21.60;1.00;;;;;;5045083;28;20533;-75
2023/08/22 00:05:28;;;;;;;6.10;3.87;;;21.60;1.00;;;;;;5045273;28;20453;-72
2023/08/22 00:07:55;;;;;;;5.70;3.33;;;21.60;1.00;;;;;;5048984;28;20853;-74
2023/08/22 00:10:22;;;;;;;5.67;2.80;;;21.50;1.00;;;;;;5051406;28;20535;-74
2023/08/22 00:12:50;;;;;;;2.90;2.60;;;21.40;1.00;;;;;;5043008;28;21422;-74
2023/08/22 00:15:18;;;;;;;3.63;3.00;;;21.30;1.00;;;;;;5046128;28;20488;-75
2023/08/22 00:17:45;;;;;;;3.67;3.00;;;21.30;1.00;;;;;;5047319;28;20541;-76
2023/08/22 00:20:13;;;;;;;3.07;2.83;;;21.30;1.00;;;;;;5046289;28;20918;-75
2023/08/22 00:22:41;;;;;;;4.17;3.03;;;21.30;1.00;;;;;;5044917;28;21697;-75
2023/08/22 00:25:10;;;;;;;6.50;3.30;;;21.40;1.00;;;;;;5047155;28;20856;-75
2023/08/22 00:27:38;;;;;;;6.47;3.47;;;21.40;1.00;;;;;;5045832;28;20424;-74
2023/08/22 00:30:08;;;;;;;5.27;3.03;;;21.40;1.00;;;;;;5043922;28;20552;-74
2023/08/22 00:32:36;;;;;;;6.20;3.40;;;21.40;1.00;;;;;;5047787;28;20523;-74
2023/08/22 00:35:03;;;;;;;6.50;3.07;;;21.40;1.00;;;;;;5048122;28;20460;-74
2023/08/22 00:37:30;;;;;;;4.30;3.30;;;21.40;1.00;;;;;;5043559;28;20517;-75
2023/08/22 00:39:57;;;;;;;4.03;2.60;;;21.40;1.00;;;;;;5044979;28;20456;-73
2023/08/22 00:42:24;;;;;;;5.90;3.40;;;21.50;1.00;;;;;;5040016;28;20566;-73
2023/08/22 00:44:53;;;;;;;5.33;2.90;;;21.50;1.00;;;;;;5039401;28;21018;-73
2023/08/22 00:47:22;;;;;;;4.30;2.80;;;21.40;1.00;;;;;;5042206;28;20522;-73
2023/08/22 00:49:49;;;;;;;4.33;3.10;;;21.40;1.00;;;;;;5045328;28;20460;-75
2023/08/22 00:52:16;;;;;;;3.83;3.00;;;21.40;1.00;;;;;;5041116;28;20940;-74
2023/08/22 00:54:46;;;;;;;3.87;3.50;;;21.30;1.00;;;;;;5042676;28;20467;-74
2023/08/22 00:57:14;;;;;;;5.47;3.20;;;21.40;1.00;;;;;;5041672;28;20533;-75
2023/08/22 00:59:41;;;;;;;4.10;3.00;;;21.30;1.00;;;;;;5041773;28;20464;-75
2023/08/22 01:02:09;;;;;;;3.90;3.20;;;21.20;1.00;;;;;;5047681;28;20482;-74
2023/08/22 01:04:38;;;;;;;4.77;3.20;;;21.10;1.00;;;;;;5052836;22;20538;-76
2023/08/22 01:07:15;;;;;;;4.93;3.27;;;21.10;1.00;;;;;;5033293;28;20472;-75
2023/08/22 01:09:47;;;;;;;4.27;3.30;;;21.10;1.00;;;;;;5028930;28;20462;-76
2023/08/22 01:12:21;;;;;;;7.10;6.03;;;21.10;1.00;;;;;;5030652;28;20521;-75
2023/08/22 01:14:54;;;;;;;5.50;4.30;;;21.10;1.00;;;;;;5009731;28;20835;-76
2023/08/22 01:17:22;;;;;;;3.93;3.33;;;21.10;1.00;;;;;;5010289;28;20561;-78
2023/08/22 01:19:51;;;;;;;6.70;3.27;;;21.10;1.00;;;;;;5031503;28;20482;-76
2023/08/22 01:22:25;;;;;;;4.80;3.23;;;21.10;1.00;;;;;;5031922;28;20473;-76
2023/08/22 01:24:52;;;;;;;6.27;3.30;;;21.00;1.00;;;;;;5029107;28;20456;-76
2023/08/22 01:27:25;;;;;;;4.80;3.10;;;21.10;1.00;;;;;;5031097;28;20468;-76
2023/08/22 01:29:59;;;;;;;7.50;2.90;;;21.00;1.00;;;;;;5024150;28;20476;-76
2023/08/22 01:32:30;;;;;;;3.70;3.20;;;21.10;1.00;;;;;;5028671;28;20895;-75
2023/08/22 01:35:02;;;;;;;4.90;2.90;;;21.00;1.00;;;;;;5028091;28;20539;-76
2023/08/22 01:37:32;;;;;;;2.97;2.57;;;21.10;1.00;;;;;;5028291;28;20464;-77
2023/08/22 01:40:04;;;;;;;6.47;3.20;;;21.10;1.00;;;;;;5028862;28;20528;-78
2023/08/22 01:42:32;;;;;;;5.87;2.80;;;21.20;1.00;;;;;;5029218;28;20471;-75
2023/08/22 01:44:59;;;;;;;5.97;3.33;;;21.10;1.00;;;;;;5032769;28;20564;-76
2023/08/22 01:47:26;;;;;;;3.67;2.90;;;21.00;1.00;;;;;;5028086;28;20471;-76
2023/08/22 01:49:54;;;;;;;7.37;3.23;;;21.10;1.00;;;;;;5022040;28;20428;-77
2023/08/22 01:52:21;;;;;;;3.73;3.00;;;21.10;1.00;;;;;;5031069;28;20476;-75
2023/08/22 01:54:51;;;;;;;5.10;3.20;;;21.00;1.00;;;;;;5029034;28;20895;-75
2023/08/22 01:57:21;;;;;;;4.20;2.77;;;21.00;1.00;;;;;;5030029;28;20515;-76
2023/08/22 01:59:48;;;;;;;4.53;2.93;;;21.10;1.00;;;;;;5012878;28;20522;-76
2023/08/22 02:02:14;;;;;;;5.13;3.17;;;21.20;1.00;;;;;;5007959;28;20511;-75
2023/08/22 02:04:42;;;;;;;5.83;3.00;;;21.10;1.00;;;;;;5010243;28;20553;-75
2023/08/22 02:07:09;;;;;;;7.43;3.47;;;21.10;1.00;;;;;;5012743;28;20478;-75
2023/08/22 02:09:36;;;;;;;5.17;3.57;;;21.00;1.00;;;;;;5008267;28;20516;-77
2023/08/22 02:12:04;;;;;;;5.43;3.17;;;21.00;1.00;;;;;;5011564;28;20931;-76
2023/08/22 02:14:31;;;;;;;5.33;2.77;;;21.10;1.00;;;;;;5012164;28;20458;-75
2023/08/22 02:16:58;;;;;;;6.73;3.47;;;21.00;1.00;;;;;;5010570;28;20977;-75
2023/08/22 02:19:26;;;;;;;6.10;3.47;;;21.00;1.00;;;;;;5007430;28;20470;-75
2023/08/22 02:21:54;;;;;;;7.73;3.20;;;20.90;1.00;;;;;;5011303;28;21014;-77
2023/08/22 02:24:21;;;;;;;6.00;3.20;;;20.90;1.00;;;;;;5008588;28;20480;-78
2023/08/22 02:26:48;;;;;;;4.73;3.30;;;20.90;1.00;;;;;;5010368;28;20968;-76
2023/08/22 02:29:17;;;;;;;5.07;3.40;;;20.90;1.00;;;;;;5009434;28;20520;-76
2023/08/22 02:31:44;;;;;;;7.73;3.90;;;21.00;1.00;;;;;;5010733;28;20594;-76
2023/08/22 02:34:10;;;;;;;6.97;3.00;;;20.90;1.00;;;;;;5011328;28;21300;-76
2023/08/22 02:36:37;;;;;;;4.10;3.20;;;21.00;1.00;;;;;;5012189;28;21808;-76
2023/08/22 02:39:04;;;;;;;5.03;3.77;;;21.00;1.00;;;;;;5009965;28;20568;-77
2023/08/22 02:41:31;;;;;;;6.80;3.70;;;20.90;1.00;;;;;;5009511;28;20567;-76
2023/08/22 02:43:59;;;;;;;6.10;3.10;;;21.00;1.00;;;;;;5009238;28;20547;-77
2023/08/22 02:46:27;;;;;;;4.90;2.93;;;20.90;1.00;;;;;;5008369;28;20465;-76
2023/08/22 02:48:54;;;;;;;4.80;3.60;;;21.00;1.00;;;;;;5008643;28;20920;-77
2023/08/22 02:51:21;;;;;;;6.43;3.43;;;21.00;1.00;;;;;;5010586;28;20583;-77
2023/08/22 02:53:48;;;;;;;4.53;2.87;;;20.90;1.00;;;;;;5028039;28;20453;-76
2023/08/22 02:56:15;;;;;;;7.37;3.10;;;20.90;1.00;;;;;;5017326;28;20976;-76
2023/08/22 03:02:06;;;;;;;4.50;3.50;;;20.90;1.00;;;;;;5028360;28;20476;-76
2023/08/22 03:04:33;;;;;;;3.70;3.43;;;20.80;1.00;;;;;;5032361;28;20464;-75
2023/08/22 03:07:00;;;;;;;4.97;3.37;;;20.70;1.00;;;;;;5033438;28;20501;-79
2023/08/22 03:09:28;;;;;;;6.60;3.60;;;20.70;1.00;;;;;;5028101;28;20552;-75
2023/08/22 03:11:56;;;;;;;3.57;3.13;;;20.70;1.00;;;;;;5028787;28;21010;-77
2023/08/22 03:14:23;;;;;;;5.50;3.73;;;20.70;1.00;;;;;;5030076;28;20917;-77
2023/08/22 03:16:50;;;;;;;5.83;3.30;;;20.70;1.00;;;;;;5031008;28;20475;-75
2023/08/22 03:19:18;;;;;;;5.23;3.33;;;20.80;1.00;;;;;;5028968;28;20484;-76
2023/08/22 03:21:45;;;;;;;4.37;3.50;;;20.80;1.00;;;;;;5026540;28;20477;-76
2023/08/22 03:24:12;;;;;;;5.57;3.23;;;20.80;1.00;;;;;;5024664;28;20521;-76
2023/08/22 03:26:39;;;;;;;5.53;3.43;;;20.80;1.00;;;;;;5026537;28;20480;-76
2023/08/22 03:29:06;;;;;;;3.77;3.10;;;20.80;1.00;;;;;;5029038;28;20468;-76
2023/08/22 03:31:34;;;;;;;5.10;3.40;;;20.70;1.00;;;;;;5031000;28;20495;-75
2023/08/22 03:34:01;;;;;;;4.83;3.50;;;20.70;1.00;;;;;;5031337;28;20461;-76
2023/08/22 03:36:29;;;;;;;9.10;5.50;;;20.70;1.00;;;;;;5009673;28;20515;-76
2023/08/22 03:38:56;;;;;;;6.10;3.73;;;20.70;1.00;;;;;;5022962;28;20516;-76
2023/08/22 03:41:24;;;;;;;4.77;3.50;;;20.70;1.00;;;;;;5034306;28;20518;-77
2023/08/22 03:43:53;;;;;;;6.20;4.10;;;20.80;1.00;;;;;;5033639;28;20948;-78
2023/08/22 03:46:20;;;;;;;7.40;3.50;;;20.70;1.00;;;;;;5034772;28;21807;-76
2023/08/22 03:48:47;;;;;;;13.63;4.43;;;20.80;1.00;;;;;;5012964;28;20470;-76
2023/08/22 03:51:14;;;;;;;6.33;3.80;;;20.80;1.00;;;;;;5030805;28;20585;-76
2023/08/22 03:53:42;;;;;;;4.80;2.90;;;20.80;1.00;;;;;;5033622;28;20461;-75
2023/08/22 03:56:09;;;;;;;5.13;3.10;;;20.80;1.00;;;;;;5033586;28;20622;-76
2023/08/22 03:58:37;;;;;;;4.40;3.20;;;20.80;1.00;;;;;;5031081;28;20586;-76
2023/08/22 04:01:05;;;;;;;5.30;3.50;;;20.70;1.00;;;;;;5037523;28;20492;-76
2023/08/22 04:03:32;;;;;;;4.50;3.10;;;20.70;1.00;;;;;;5027917;28;20541;-76
2023/08/22 04:05:59;;;;;;;5.80;3.30;;;20.70;1.00;;;;;;5030674;28;20568;-76
2023/08/22 04:08:29;;;;;;;4.83;3.67;;;20.70;1.00;;;;;;5028526;28;20466;-78
2023/08/22 04:11:05;;;;;;;4.57;3.40;;;20.60;1.00;;;;;;5032563;28;20517;-76
2023/08/22 04:13:32;;;;;;;5.70;3.47;;;20.50;1.00;;;;;;5018422;28;20999;-76
2023/08/22 04:16:00;;;;;;;5.97;3.50;;;20.50;1.00;;;;;;5012014;28;21058;-77
2023/08/22 04:18:28;;;;;;;7.03;4.00;;;20.50;1.00;;;;;;5009156;28;20469;-77
2023/08/22 04:20:55;;;;;;;5.47;3.90;;;20.40;1.00;;;;;;5014996;28;20479;-75
2023/08/22 04:23:22;;;;;;;7.20;3.77;;;20.40;1.00;;;;;;5032286;28;20467;-79
2023/08/22 04:25:49;;;;;;;3.27;2.97;;;20.40;1.00;;;;;;5033337;28;20414;-77
2023/08/22 04:28:19;;;;;;;3.40;2.93;;;20.50;1.00;;;;;;5037381;28;20548;-76
2023/08/22 04:30:46;;;;;;;2.50;2.30;;;20.50;1.00;;;;;;5030344;28;20920;-75
2023/08/22 04:33:15;;;;;;;5.87;3.40;;;20.50;1.00;;;;;;5030381;28;20467;-77
2023/08/22 04:35:42;;;;;;;5.67;3.50;;;20.60;1.00;;;;;;5029681;28;20487;-76
2023/08/22 04:38:09;;;;;;;4.40;3.10;;;20.60;1.00;;;;;;5011176;28;20461;-76
2023/08/22 04:40:36;;;;;;;6.67;3.63;;;20.70;1.00;;;;;;5013369;28;20484;-76
2023/08/22 04:43:03;;;;;;;6.73;3.03;;;20.60;1.00;;;;;;5007761;28;20453;-76
2023/08/22 04:45:34;;;;;;;6.83;3.67;;;20.70;1.00;;;;;;5011352;28;20485;-76
2023/08/22 04:48:03;;;;;;;5.27;3.47;;;20.70;1.00;;;;;;5013052;28;20539;-77
2023/08/22 04:50:31;;;;;;;5.37;3.33;;;20.70;1.00;;;;;;5007244;28;20666;-78
2023/08/22 04:53:01;;;;;;;5.20;4.03;;;20.80;1.00;;;;;;5014125;28;20540;-75
2023/08/22 04:55:28;;;;;;;3.83;2.90;;;20.90;1.00;;;;;;5009087;28;20512;-77
2023/08/22 04:57:55;;;;;;;3.20;2.90;;;21.00;1.00;;;;;;5005194;28;20808;-76
2023/08/22 05:00:22;;;;;;;3.80;2.63;;;21.00;1.00;;;;;;5012236;28;20587;-76
2023/08/22 05:02:50;;;;;;;7.53;3.57;;;21.10;1.00;;;;;;5007717;28;20465;-76
2023/08/22 05:05:17;;;;;;;3.47;3.23;;;21.10;1.00;;;;;;5012352;28;20489;-77
2023/08/22 05:07:44;;;;;;;4.53;2.60;;;21.10;1.00;;;;;;5010561;28;21054;-75
2023/08/22 05:10:12;;;;;;;6.57;2.90;;;21.10;1.00;;;;;;5008431;28;20477;-76
2023/08/22 05:12:39;;;;;;;7.80;4.83;;;21.00;1.00;;;;;;5010082;28;20518;-76
2023/08/22 05:15:09;;;;;;;4.97;2.70;;;20.90;1.00;;;;;;5013888;28;20447;-79
2023/08/22 05:17:37;;;;;;;5.70;2.50;;;20.90;1.00;;;;;;5011414;28;20481;-80
2023/08/22 05:20:10;;;;;;;7.10;3.00;;;20.90;1.00;;;;;;5013548;28;20455;-79
2023/08/22 05:22:39;;;;;;;3.27;2.90;;;20.90;1.00;;;;;;5028565;28;20561;-77
2023/08/22 05:25:09;;;;;;;7.40;3.27;;;21.00;1.00;;;;;;5031727;28;20474;-78
2023/08/22 05:27:36;;;;;;;5.47;3.17;;;20.90;1.00;;;;;;5032056;28;20987;-76
2023/08/22 05:30:04;;;;;;;4.97;3.00;;;20.90;1.00;;;;;;5034008;28;20495;-77
2023/08/22 05:32:33;;;;;;;6.57;3.57;;;20.90;1.00;;;;;;5030948;28;20486;-78
2023/08/22 05:35:00;;;;;;;4.00;3.00;;;20.90;1.00;;;;;;5032526;28;20447;-76
2023/08/22 05:37:34;;;;;;;3.37;2.20;;;21.00;1.00;;;;;;5033194;28;20420;-77
2023/08/22 05:40:03;;;;;;;3.20;2.57;;;21.00;1.00;;;;;;5031915;28;20525;-79
2023/08/22 05:42:30;;;;;;;5.20;3.20;;;20.90;1.00;;;;;;5023083;28;20464;-76
2023/08/22 05:44:57;;;;;;;7.43;3.47;;;21.00;1.00;;;;;;5015260;28;20865;-79
2023/08/22 05:47:25;;;;;;;8.27;6.10;;;21.10;1.00;;;;;;5010138;28;20470;-77
2023/08/22 05:49:52;;;;;;;4.33;2.63;;;21.10;1.00;;;;;;5021724;28;20510;-78
2023/08/22 05:52:20;;;;;;;6.60;2.80;;;21.30;1.00;;;;;;5030522;28;20971;-77
2023/08/22 05:54:48;;;;;;;5.93;3.23;;;21.40;1.00;;;;;;5029958;28;20453;-75
2023/08/22 05:57:15;;;;;;;3.97;3.07;;;21.50;1.00;;;;;;5028184;28;20929;-76
2023/08/22 05:59:42;;;;;;;4.70;3.10;;;21.50;1.00;;;;;;5030363;28;20469;-77
2023/08/22 06:02:09;;;;;;;4.87;2.77;;;21.60;1.00;;;;;;5030315;28;20510;-79
2023/08/22 06:04:37;;;;;;;6.93;3.90;;;21.80;1.00;;;;;;5026737;28;20925;-76
2023/08/22 06:07:05;;;;;;;6.40;2.97;;;21.90;1.00;;;;;;5027868;28;20557;-78
2023/08/22 06:09:33;;;;;;;4.70;2.57;;;21.90;1.00;;;;;;5032347;28;20498;-75
2023/08/22 06:12:01;;;;;;;6.53;3.97;;;22.00;1.00;;;;;;5031065;28;20547;-76
2023/08/22 06:14:31;;;;;;;5.77;2.83;;;21.90;1.00;;;;;;5032246;28;20975;-76
2023/08/22 06:16:58;;;;;;;4.63;2.83;;;22.00;1.00;;;;;;5027554;28;20545;-76
2023/08/22 06:19:26;;;;;;;4.50;2.87;;;22.00;1.00;;;;;;5024475;28;20531;-78
2023/08/22 06:21:55;;;;;;;4.73;2.97;;;21.90;1.00;;;;;;5033705;28;20449;-75
2023/08/22 06:24:23;;;;;;;5.37;3.50;;;21.90;1.00;;;;;;5032419;28;20476;-78
2023/08/22 06:26:52;;;;;;;4.07;2.87;;;21.90;1.00;;;;;;5029854;28;20507;-76
2023/08/22 06:29:22;;;;;;;4.13;2.70;;;21.80;1.00;;;;;;5028026;28;20513;-77
2023/08/22 06:31:51;;;;;;;6.70;3.00;;;21.90;1.00;;;;;;5026919;28;20477;-76
2023/08/22 06:34:18;;;;;;;6.07;3.00;;;21.90;1.00;;;;;;5030566;28;20489;-75
2023/08/22 06:36:45;;;;;;;5.80;2.77;;;22.00;1.00;;;;;;5028581;28;20868;-75
2023/08/22 06:39:12;;;;;;;3.90;2.80;;;21.90;1.00;;;;;;5023305;28;20487;-76
2023/08/22 06:41:39;;;;;;;5.60;2.83;;;22.10;1.00;;;;;;5011689;28;20563;-75
2023/08/22 06:44:09;;;;;;;3.60;2.70;;;22.10;1.00;;;;;;5012363;28;20974;-76
2023/08/22 06:46:38;;;;;;;4.40;2.80;;;22.30;1.00;;;;;;5014079;28;20454;-75
2023/08/22 06:49:05;;;;;;;4.40;2.83;;;22.30;1.00;;;;;;5035729;28;20473;-76
2023/08/22 06:51:35;;;;;;;5.67;3.20;;;22.30;1.00;;;;;;5021050;28;20463;-77
2023/08/22 06:54:02;;;;;;;6.10;2.43;;;22.30;1.00;;;;;;5022078;28;20549;-77
2023/08/22 06:56:29;;;;;;;5.17;3.00;;;22.50;1.00;;;;;;5023417;28;20464;-76
2023/08/22 06:58:56;;;;;;;5.30;2.97;;;22.70;1.00;;;;;;5019149;28;20665;-78
2023/08/22 07:01:23;;;;;;;13.70;4.83;;;22.80;1.00;;;;;;5009187;28;20879;-76
2023/08/22 07:03:52;;;;;;;4.87;2.50;;;23.00;1.00;;;;;;5006181;28;20600;-75
2023/08/22 07:06:19;;;;;;;4.50;2.80;;;23.20;1.00;;;;;;5009287;28;20545;-81
2023/08/22 07:08:46;;;;;;;5.17;2.53;;;23.40;1.00;;;;;;5022612;28;20970;-78
2023/08/22 07:11:13;;;;;;;4.60;2.67;;;23.60;1.00;;;;;;5031271;28;20830;-77
2023/08/22 07:13:40;;;;;;;5.23;2.97;;;23.40;1.00;;;;;;5030194;28;20561;-77
2023/08/22 07:16:10;;;;;;;5.30;3.50;;;23.50;1.00;;;;;;5031453;28;20466;-77
2023/08/22 07:18:37;;;;;;;4.00;2.23;;;23.50;1.00;;;;;;5046860;28;20483;-76
2023/08/22 07:21:08;;;;;;;4.07;2.73;;;23.60;1.00;;;;;;5031093;28;20467;-80
2023/08/22 07:23:35;;;;;;;3.40;2.37;;;23.60;1.00;;;;;;5033375;28;20455;-77
2023/08/22 07:26:02;;;;;;;2.60;2.10;;;23.60;1.00;;;;;;5010589;28;22388;-77
2023/08/22 07:28:31;;;;;;;4.90;2.67;;;23.70;1.00;;;;;;5027426;28;21000;-77
2023/08/22 07:31:06;;;;;;;2.70;2.30;;;23.90;1.00;;;;;;5031375;28;20970;-77
2023/08/22 07:33:33;;;;;;;5.57;3.33;;;24.00;1.00;;;;;;5030660;28;21014;-78
2023/08/22 07:36:01;;;;;;;6.50;2.83;;;24.10;1.00;;;;;;5027873;28;20537;-76
2023/08/22 07:38:30;;;;;;;4.67;2.43;;;24.20;1.00;;;;;;5028428;28;20474;-78
2023/08/22 07:40:57;;;;;;;3.20;1.87;;;24.20;1.00;;;;;;5031339;28;20469;-79
2023/08/22 07:43:26;;;;;;;4.27;2.20;;;24.50;1.00;;;;;;5024134;28;20536;-77
2023/08/22 07:45:54;;;;;;;3.43;1.97;;;24.60;1.00;;;;;;5030808;28;20513;-77
2023/08/22 07:48:30;;;;;;;6.50;1.97;;;24.30;1.00;;;;;;5022156;28;20480;-79
2023/08/22 07:50:57;;;;;;;6.37;2.13;;;24.30;1.00;;;;;;5025145;28;20456;-77
2023/08/22 07:53:25;;;;;;;3.93;2.40;;;24.40;1.00;;;;;;5026655;28;21049;-78
2023/08/22 07:55:55;;;;;;;3.67;2.00;;;24.50;1.00;;;;;;5026696;28;20544;-78
2023/08/22 07:58:23;;;;;;;3.57;1.97;;;24.60;1.00;;;;;;5029832;28;20478;-79
2023/08/22 08:00:54;;;;;;;4.80;2.30;;;24.80;1.00;;;;;;5033257;28;20458;-77
2023/08/22 08:03:21;;;;;;;4.53;2.47;;;24.70;1.00;;;;;;5030197;28;20584;-76
2023/08/22 08:05:54;;;;;;;5.90;2.20;;;24.90;1.00;;;;;;5023332;28;20501;-77
2023/08/22 08:08:21;;;;;;;6.07;2.07;;;25.30;1.00;;;;;;5030817;28;20837;-77
2023/08/22 08:10:52;;;;;;;1.73;1.60;;;25.50;1.00;;;;;;5027983;28;20979;-77
2023/08/22 08:13:24;;;;;;;3.83;2.10;;;25.50;1.00;;;;;;5026502;28;20464;-77
2023/08/22 08:15:52;;;;;;;8.70;2.70;;;25.70;1.00;;;;;;5031084;28;20510;-77
2023/08/22 08:18:20;;;;;;;3.37;2.20;;;26.00;1.00;;;;;;5030353;28;20570;-76
2023/08/22 08:20:48;;;;;;;4.13;1.90;;;26.10;1.00;;;;;;5017616;28;20464;-76
2023/08/22 08:23:15;;;;;;;6.30;2.20;;;26.00;1.00;;;;;;5032473;28;20585;-76
2023/08/22 08:25:43;;;;;;;5.33;2.23;;;25.50;1.00;;;;;;5022691;28;20469;-77
2023/08/22 08:28:10;;;;;;;7.47;2.93;;;25.30;1.00;;;;;;5042567;28;20473;-77
2023/08/22 08:30:40;;;;;;;4.20;3.03;;;25.40;1.00;;;;;;5032974;28;20464;-78
2023/08/22 08:33:07;;;;;;;7.30;2.50;;;25.50;1.00;;;;;;5034995;28;20491;-80
2023/08/22 08:35:34;;;;;;;3.80;2.50;;;25.60;1.00;;;;;;5022420;28;20441;-78
2023/08/22 08:38:01;;;;;;;4.10;2.80;;;25.50;1.00;;;;;;5034850;28;20481;-78
2023/08/22 08:40:37;;;;;;;4.13;2.60;;;25.50;1.00;;;;;;5032876;28;20997;-79
2023/08/22 08:43:05;;;;;;;8.40;3.27;;;25.60;1.00;;;;;;5027515;28;20475;-79
2023/08/22 08:45:34;;;;;;;5.43;2.63;;;25.90;1.00;;;;;;5031555;28;20538;-77
2023/08/22 08:48:07;;;;;;;2.70;2.40;;;26.20;1.00;;;;;;5028468;28;20566;-78
2023/08/22 08:50:38;;;;;;;4.33;2.53;;;26.40;1.00;;;;;;5034003;28;20445;-78
2023/08/22 08:53:08;;;;;;;5.57;2.43;;;26.40;1.00;;;;;;5033262;28;20433;-77
2023/08/22 08:55:36;;;;;;;6.87;2.53;;;26.50;1.00;;;;;;5033104;28;20468;-78
2023/08/22 08:58:06;;;;;;;5.93;2.20;;;26.40;1.00;;;;;;5033380;28;20516;-78
2023/08/22 09:00:35;;;;;;;4.70;2.63;;;26.20;1.00;;;;;;5031018;28;21109;-77
2023/08/22 09:03:05;;;;;;;6.70;2.30;;;26.20;1.00;;;;;;5024398;28;20521;-76
2023/08/22 09:05:33;;;;;;;3.30;2.13;;;26.20;1.00;;;;;;5028318;28;20531;-76
2023/08/22 09:08:16;;;;;;;2.57;2.20;;;26.10;1.00;;;;;;5035054;28;20478;-76
2023/08/22 09:10:48;;;;;;;3.30;2.20;;;26.10;1.00;;;;;;5030531;28;20447;-78
2023/08/22 09:13:15;;;;;;;5.63;2.90;;;26.00;1.00;;;;;;5016891;28;20924;-76
2023/08/22 09:15:43;;;;;;;4.30;2.67;;;26.30;1.00;;;;;;5014759;28;20461;-75
2023/08/22 09:18:16;;;;;;;4.43;2.47;;;26.60;1.00;;;;;;5017462;28;20492;-77
2023/08/22 09:20:45;;;;;;;4.90;2.30;;;26.90;1.00;;;;;;5030631;28;20495;-75
2023/08/22 09:23:28;;;;;;;3.60;2.03;;;27.10;1.00;;;;;;5032799;28;21341;-77
2023/08/22 09:25:56;;;;;;;3.30;2.70;;;27.10;1.00;;;;;;5012425;28;20999;-77
2023/08/22 09:28:24;;;;;;;3.00;2.13;;;27.00;1.00;;;;;;5028276;28;20475;-78
2023/08/22 09:30:53;;;;;;;4.63;2.70;;;27.20;1.00;;;;;;5013996;28;21017;-79
2023/08/22 09:33:22;;;;;;;9.00;2.90;;;27.60;1.00;;;;;;5028698;28;20562;-76
2023/08/22 09:35:56;;;;;;;7.30;2.70;;;28.10;1.00;;;;;;5013976;28;20513;-77
2023/08/22 09:38:23;;;;;;;5.77;2.70;;;29.00;1.00;;;;;;5037069;28;20592;-77
2023/08/22 09:40:54;;;;;;;3.90;2.47;;;29.10;1.00;;;;;;5034928;28;20503;-78
2023/08/22 09:43:25;;;;;;;7.13;4.03;;;29.00;1.00;;;;;;5033614;28;20479;-77
2023/08/22 09:45:53;;;;;;;5.80;2.63;;;28.90;1.00;;;;;;5028927;28;20502;-76
2023/08/22 09:48:30;;;;;;;4.23;2.50;;;29.20;1.00;;;;;;5029503;28;20476;-78
2023/08/22 09:51:00;;;;;;;4.73;2.40;;;29.40;1.00;;;;;;5020404;28;20456;-75
2023/08/22 09:53:29;;;;;;;4.97;2.50;;;29.30;1.00;;;;;;5022709;28;20551;-77
2023/08/22 09:55:56;;;;;;;5.40;2.60;;;29.40;1.00;;;;;;5034887;28;20446;-77
2023/08/22 09:58:30;;;;;;;5.23;3.07;;;29.50;1.00;;;;;;5032467;28;20933;-77
2023/08/22 10:00:58;;;;;;;4.70;2.97;;;29.30;1.00;;;;;;5035648;28;20826;-77
2023/08/22 10:03:30;;;;;;;4.33;2.90;;;29.30;1.00;;;;;;5033775;28;20477;-76
2023/08/22 10:06:10;;;;;;;5.87;2.57;;;29.20;1.00;;;;;;5034427;28;20644;-77
2023/08/22 10:08:38;;;;;;;3.80;2.80;;;29.20;1.00;;;;;;5033456;28;20496;-77
2023/08/22 10:11:07;;;;;;;4.90;2.80;;;29.00;1.00;;;;;;5030106;28;20900;-77
2023/08/22 10:13:39;;;;;;;6.07;2.87;;;28.90;1.00;;;;;;5030354;28;20564;-76
2023/08/22 10:16:08;;;;;;;6.27;2.60;;;28.80;1.00;;;;;;5026336;28;20496;-79
2023/08/22 10:18:37;;;;;;;4.43;2.23;;;28.60;1.00;;;;;;5030710;28;20480;-76
2023/08/22 10:21:05;;;;;;;5.07;2.53;;;28.70;1.00;;;;;;5030591;28;20579;-75
2023/08/22 10:23:58;;;;;;;2.40;2.20;;;28.90;1.00;;;;;;5031378;28;21260;-77
2023/08/22 10:26:29;;;;;;;3.67;3.00;;;29.80;1.00;;;;;;5022734;28;21163;-77
2023/08/22 10:29:15;;;;;;;6.50;3.03;;;30.70;1.00;;;;;;5029246;28;20568;-76
2023/08/22 10:32:19;;;;;;;3.63;2.23;;;31.10;1.00;;;;;;5031371;28;20540;-76
2023/08/22 10:35:06;;;;;;;3.17;2.03;;;31.30;1.00;;;;;;5029948;28;20570;-76
2023/08/22 10:37:51;;;;;;;2.90;2.67;;;31.40;1.00;;;;;;5022752;28;20489;-77
2023/08/22 10:40:24;;;;;;;5.73;3.30;;;31.20;1.00;;;;;;5042090;28;20477;-81
2023/08/22 10:42:53;;;;;;;2.77;2.50;;;31.00;1.00;;;;;;5028905;28;20458;-77
2023/08/22 10:45:21;;;;;;;3.13;2.50;;;31.00;1.00;;;;;;5032104;28;20457;-76
2023/08/22 10:48:09;;;;;;;7.77;3.53;;;31.00;1.00;;;;;;5027218;28;20454;-78
2023/08/22 10:50:40;;;;;;;4.53;3.23;;;30.60;1.00;;;;;;5030000;28;20499;-78
2023/08/22 10:53:28;;;;;;;3.50;2.83;;;30.20;1.00;;;;;;5032185;28;20464;-76
2023/08/22 10:55:56;;;;;;;6.63;4.73;;;30.00;1.00;;;;;;5012086;28;20696;-78
2023/08/22 10:58:37;;;;;;;6.20;3.03;;;30.00;1.00;;;;;;5030475;28;20493;-77
2023/08/22 11:01:07;;;;;;;5.20;2.80;;;29.80;1.00;;;;;;5029285;28;20457;-76
2023/08/22 11:03:34;;;;;;;7.67;3.20;;;29.70;1.00;;;;;;5028429;28;20880;-79
2023/08/22 11:06:11;;;;;;;9.67;3.30;;;29.80;1.00;;;;;;5027757;28;20905;-76
2023/08/22 11:08:39;;;;;;;3.60;2.60;;;29.80;1.00;;;;;;5022178;28;20469;-77
2023/08/22 11:11:08;;;;;;;4.57;2.60;;;29.80;1.00;;;;;;5010424;28;20975;-77
2023/08/22 11:13:38;;;;;;;7.60;2.80;;;29.80;1.00;;;;;;5028411;28;20461;-76
2023/08/22 11:16:09;;;;;;;5.17;3.57;;;29.60;1.00;;;;;;5028483;28;20452;-77
2023/08/22 11:18:36;;;;;;;3.23;2.63;;;29.70;1.00;;;;;;5024410;28;20453;-77
2023/08/22 11:21:10;;;;;;;5.27;2.87;;;29.80;1.00;;;;;;5033454;28;20527;-79
2023/08/22 11:23:37;;;;;;;7.13;3.20;;;29.80;1.00;;;;;;5029487;28;20461;-78
2023/08/22 11:26:07;;;;;;;5.47;3.70;;;29.80;1.00;;;;;;5030899;28;20489;-78
2023/08/22 11:28:38;;;;;;;3.83;2.87;;;29.90;1.00;;;;;;5027147;28;20942;-77
2023/08/22 11:31:06;;;;;;;5.90;3.17;;;29.80;1.00;;;;;;5029056;28;20484;-76
2023/08/22 11:33:47;;;;;;;8.00;4.53;;;29.70;1.00;;;;;;5028020;28;20465;-77
2023/08/22 11:36:20;;;;;;;3.97;3.50;;;29.60;1.00;;;;;;5027480;28;20458;-76
2023/08/22 11:38:50;;;;;;;4.50;3.07;;;29.60;1.00;;;;;;5027080;28;20450;-78
2023/08/22 11:41:20;;;;;;;4.03;2.40;;;29.60;1.00;;;;;;5030105;28;20469;-77
2023/08/22 11:43:59;;;;;;;4.50;2.97;;;29.90;1.00;;;;;;5016982;28;20445;-78
2023/08/22 11:46:34;;;;;;;3.50;2.93;;;30.00;1.00;;;;;;5028837;28;20469;-77
2023/08/22 11:49:08;;;;;;;2.70;2.40;;;30.20;1.00;;;;;;5027910;28;20464;-80
2023/08/22 11:51:37;;;;;;;3.20;2.70;;;30.80;1.00;;;;;;5030389;28;20997;-78
2023/08/22 11:54:04;;;;;;;4.07;2.30;;;31.60;1.00;;;;;;5029229;28;20544;-78
2023/08/22 11:56:31;;;;;;;6.87;3.20;;;32.80;1.00;;;;;;5026035;28;20928;-77
2023/08/22 11:59:00;;;;;;;6.57;3.43;;;33.70;1.00;;;;;;5029201;28;20503;-77
2023/08/22 12:01:29;;;;;;;3.90;2.33;;;34.30;1.00;;;;;;5027710;28;20534;-79
2023/08/22 12:03:57;;;;;;;5.30;2.87;;;35.50;1.00;;;;;;5031778;28;20453;-77
2023/08/22 12:06:28;;;;;;;6.00;3.50;;;36.40;1.00;;;;;;5024896;28;20582;-76
2023/08/22 12:09:00;;;;;;;4.90;3.07;;;36.60;1.00;;;;;;5009533;28;20516;-76
2023/08/22 12:11:30;;;;;;;5.23;2.70;;;36.00;1.00;;;;;;5009315;28;20924;-74
2023/08/22 12:13:58;;;;;;;6.70;3.10;;;35.30;1.00;;;;;;5009997;28;21266;-76
2023/08/22 12:16:28;;;;;;;3.67;2.50;;;34.90;1.00;;;;;;5010872;28;20505;-78
2023/08/22 12:18:55;;;;;;;7.27;3.00;;;34.40;1.00;;;;;;5011834;28;21317;-77
2023/08/22 12:21:23;;;;;;;6.77;3.37;;;34.00;1.00;;;;;;5011835;28;20555;-76
2023/08/22 12:23:51;;;;;;;3.13;2.83;;;33.30;1.00;;;;;;5014660;28;20567;-76
2023/08/22 12:26:20;;;;;;;3.83;2.63;;;32.90;1.00;;;;;;5029747;28;20609;-77
2023/08/22 12:28:48;;;;;;;5.20;2.63;;;32.80;1.00;;;;;;5029265;28;20540;-78
2023/08/22 12:31:15;;;;;;;3.93;2.40;;;32.70;1.00;;;;;;5031516;28;20923;-77
2023/08/22 12:33:43;;;;;;;11.50;3.50;;;32.70;1.00;;;;;;5031311;28;21263;-76
2023/08/22 12:36:12;;;;;;;5.50;2.97;;;32.50;1.00;;;;;;5030334;28;21808;-78
2023/08/22 12:38:39;;;;;;;4.07;2.77;;;31.90;1.00;;;;;;5031908;28;20469;-77
2023/08/22 12:41:07;;;;;;;5.50;3.00;;;31.40;1.00;;;;;;5028247;28;20550;-78
2023/08/22 12:43:35;;;;;;;3.57;2.80;;;30.90;1.00;;;;;;5027825;28;20477;-77
2023/08/22 12:46:02;;;;;;;5.10;3.40;;;30.40;1.00;;;;;;5028271;28;20466;-76
2023/08/22 12:48:32;;;;;;;6.23;3.57;;;29.90;1.00;;;;;;5032945;28;20469;-77
2023/08/22 12:50:59;;;;;;;12.63;3.83;;;29.60;1.00;;;;;;5027690;28;20476;-77
2023/08/22 12:53:26;;;;;;;6.90;3.53;;;29.40;1.00;;;;;;5026887;28;21009;-77
2023/08/22 12:55:56;;;;;;;5.47;2.90;;;29.10;1.00;;;;;;5030393;28;20558;-76
2023/08/22 12:58:23;;;;;;;8.10;4.30;;;29.00;1.00;;;;;;5031336;28;20551;-78
2023/08/22 13:00:52;;;;;;;4.37;3.30;;;28.80;1.00;;;;;;5030987;28;20551;-77
2023/08/22 13:03:18;;;;;;;4.07;3.60;;;28.80;1.00;;;;;;5032617;28;20453;-76
2023/08/22 13:05:45;;;;;;;5.43;3.53;;;28.80;1.00;;;;;;5032219;28;20471;-75
2023/08/22 13:08:12;;;;;;;4.07;2.83;;;28.90;1.00;;;;;;5032275;28;20465;-78
2023/08/22 13:10:39;;;;;;;4.20;2.40;;;29.00;1.00;;;;;;5022252;28;20474;-75